sensor_id;sensor_type;location;lat;lon;timestamp;P1;durP1;ratioP1;P2;durP2;ratioP2
20729;SDS011;10526;50.850;12.928;2023-08-06T00:00:09;12.95;;;5.65;;
20729;SDS011;10526;50.850;12.928;2023-08-06T00:04:31;10.95;;;4.93;;
20729;SDS011;10526;50.850;12.928;2023-08-06T00:08:53;13.23;;;4.93;;
20729;SDS011;10526;50.850;12.928;2023-08-06T00:13:15;9.70;;;4.55;;
20729;SDS011;10526;50.850;12.928;2023-08-06T00:17:38;10.43;;;4.70;;
20729;SDS011;10526;50.850;12.928;2023-08-06T00:22:00;9.35;;;4.32;;
20729;SDS011;10526;50.850;12.928;2023-08-06T00:26:23;9.25;;;4.47;;
20729;SDS011;10526;50.850;12.928;2023-08-06T00:30:45;11.40;;;4.45;;
20729;SDS011;10526;50.850;12.928;2023-08-06T00:35:07;9.85;;;4.97;;
20729;SDS011;10526;50.850;12.928;2023-08-06T00:39:30;7.72;;;4.13;;
20729;SDS011;10526;50.850;12.928;2023-08-06T00:43:52;13.13;;;5.18;;
20729;SDS011;10526;50.850;12.928;2023-08-06T00:48:15;11.68;;;5.40;;
20729;SDS011;10526;50.850;12.928;2023-08-06T00:52:37;12.30;;;5.28;;
20729;SDS011;10526;50.850;12.928;2023-08-06T00:56:59;10.77;;;5.57;;
20729;SDS011;10526;50.850;12.928;2023-08-06T01:01:23;11.05;;;6.50;;
20729;SDS011;10526;50.850;12.928;2023-08-06T01:05:45;11.38;;;5.97;;
20729;SDS011;10526;50.850;12.928;2023-08-06T01:15:19;11.15;;;5.60;;
20729;SDS011;10526;50.850;12.928;2023-08-06T01:19:47;11.43;;;5.80;;
20729;SDS011;10526;50.850;12.928;2023-08-06T01:24:09;14.55;;;5.75;;
20729;SDS011;10526;50.850;12.928;2023-08-06T01:33:55;11.65;;;6.03;;
20729;SDS011;10526;50.850;12.928;2023-08-06T01:38:19;13.77;;;6.28;;
20729;SDS011;10526;50.850;12.928;2023-08-06T01:42:42;11.70;;;6.13;;
20729;SDS011;10526;50.850;12.928;2023-08-06T01:47:04;12.18;;;5.80;;
20729;SDS011;10526;50.850;12.928;2023-08-06T01:51:26;13.07;;;5.72;;
20729;SDS011;10526;50.850;12.928;2023-08-06T01:55:49;12.10;;;6.28;;
20729;SDS011;10526;50.850;12.928;2023-08-06T02:00:11;14.50;;;6.63;;
20729;SDS011;10526;50.850;12.928;2023-08-06T02:04:33;13.07;;;7.13;;
20729;SDS011;10526;50.850;12.928;2023-08-06T02:08:55;11.68;;;6.10;;
20729;SDS011;10526;50.850;12.928;2023-08-06T02:13:17;13.75;;;5.97;;
20729;SDS011;10526;50.850;12.928;2023-08-06T02:17:39;12.07;;;5.78;;
20729;SDS011;10526;50.850;12.928;2023-08-06T02:22:01;10.95;;;5.40;;
20729;SDS011;10526;50.850;12.928;2023-08-06T02:26:23;12.57;;;6.25;;
20729;SDS011;10526;50.850;12.928;2023-08-06T02:30:51;14.60;;;6.00;;
20729;SDS011;10526;50.850;12.928;2023-08-06T02:35:13;13.95;;;6.38;;
20729;SDS011;10526;50.850;12.928;2023-08-06T02:39:35;10.57;;;5.95;;
20729;SDS011;10526;50.850;12.928;2023-08-06T02:44:01;13.48;;;7.85;;
20729;SDS011;10526;50.850;12.928;2023-08-06T02:48:23;14.52;;;7.68;;
20729;SDS011;10526;50.850;12.928;2023-08-06T02:52:45;14.35;;;6.82;;
20729;SDS011;10526;50.850;12.928;2023-08-06T02:57:07;14.05;;;7.38;;
20729;SDS011;10526;50.850;12.928;2023-08-06T03:01:29;15.02;;;6.43;;
20729;SDS011;10526;50.850;12.928;2023-08-06T03:05:59;13.05;;;7.15;;
20729;SDS011;10526;50.850;12.928;2023-08-06T03:10:31;13.93;;;7.30;;
20729;SDS011;10526;50.850;12.928;2023-08-06T03:14:56;15.63;;;6.63;;
20729;SDS011;10526;50.850;12.928;2023-08-06T03:19:19;13.98;;;7.18;;
20729;SDS011;10526;50.850;12.928;2023-08-06T03:23:41;14.88;;;6.60;;
20729;SDS011;10526;50.850;12.928;2023-08-06T03:28:03;14.88;;;7.90;;
20729;SDS011;10526;50.850;12.928;2023-08-06T03:32:28;12.90;;;6.85;;
20729;SDS011;10526;50.850;12.928;2023-08-06T03:36:52;15.50;;;8.13;;
20729;SDS011;10526;50.850;12.928;2023-08-06T03:41:13;12.90;;;7.05;;
20729;SDS011;10526;50.850;12.928;2023-08-06T03:45:37;12.68;;;7.00;;
20729;SDS011;10526;50.850;12.928;2023-08-06T03:49:59;12.25;;;6.03;;
20729;SDS011;10526;50.850;12.928;2023-08-06T03:54:23;12.25;;;6.65;;
20729;SDS011;10526;50.850;12.928;2023-08-06T03:58:45;13.52;;;6.07;;
20729;SDS011;10526;50.850;12.928;2023-08-06T04:03:07;11.57;;;6.00;;
20729;SDS011;10526;50.850;12.928;2023-08-06T04:07:29;9.27;;;5.07;;
20729;SDS011;10526;50.850;12.928;2023-08-06T04:11:51;12.55;;;5.97;;
20729;SDS011;10526;50.850;12.928;2023-08-06T04:16:14;12.57;;;6.35;;
20729;SDS011;10526;50.850;12.928;2023-08-06T04:20:48;13.70;;;6.20;;
20729;SDS011;10526;50.850;12.928;2023-08-06T04:25:10;11.20;;;5.75;;
20729;SDS011;10526;50.850;12.928;2023-08-06T04:29:33;9.98;;;5.57;;
20729;SDS011;10526;50.850;12.928;2023-08-06T04:33:55;11.57;;;5.53;;
20729;SDS011;10526;50.850;12.928;2023-08-06T04:38:17;10.95;;;5.03;;
20729;SDS011;10526;50.850;12.928;2023-08-06T04:42:39;7.57;;;4.28;;
20729;SDS011;10526;50.850;12.928;2023-08-06T04:47:01;9.93;;;4.57;;
20729;SDS011;10526;50.850;12.928;2023-08-06T04:51:23;9.27;;;4.97;;
20729;SDS011;10526;50.850;12.928;2023-08-06T04:55:45;9.35;;;4.07;;
20729;SDS011;10526;50.850;12.928;2023-08-06T05:00:07;11.57;;;4.32;;
20729;SDS011;10526;50.850;12.928;2023-08-06T05:04:29;8.57;;;3.80;;
20729;SDS011;10526;50.850;12.928;2023-08-06T05:08:52;13.90;;;6.82;;
20729;SDS011;10526;50.850;12.928;2023-08-06T05:13:13;7.53;;;3.28;;
20729;SDS011;10526;50.850;12.928;2023-08-06T05:17:36;5.38;;;3.05;;
20729;SDS011;10526;50.850;12.928;2023-08-06T05:21:58;6.68;;;3.05;;
20729;SDS011;10526;50.850;12.928;2023-08-06T05:26:20;6.85;;;2.85;;
20729;SDS011;10526;50.850;12.928;2023-08-06T05:30:42;5.90;;;2.80;;
20729;SDS011;10526;50.850;12.928;2023-08-06T05:35:04;6.13;;;3.30;;
20729;SDS011;10526;50.850;12.928;2023-08-06T05:39:27;7.50;;;3.40;;
20729;SDS011;10526;50.850;12.928;2023-08-06T05:43:49;6.57;;;3.40;;
20729;SDS011;10526;50.850;12.928;2023-08-06T05:48:11;6.75;;;3.88;;
20729;SDS011;10526;50.850;12.928;2023-08-06T05:52:33;9.40;;;3.28;;
20729;SDS011;10526;50.850;12.928;2023-08-06T05:56:55;14.02;;;5.60;;
20729;SDS011;10526;50.850;12.928;2023-08-06T06:01:17;7.00;;;3.28;;
20729;SDS011;10526;50.850;12.928;2023-08-06T06:05:39;7.68;;;2.90;;
20729;SDS011;10526;50.850;12.928;2023-08-06T06:10:01;6.70;;;3.20;;
20729;SDS011;10526;50.850;12.928;2023-08-06T06:14:23;7.05;;;2.92;;
20729;SDS011;10526;50.850;12.928;2023-08-06T06:18:45;5.78;;;2.85;;
20729;SDS011;10526;50.850;12.928;2023-08-06T06:23:07;8.02;;;2.88;;
20729;SDS011;10526;50.850;12.928;2023-08-06T06:27:29;4.93;;;2.58;;
20729;SDS011;10526;50.850;12.928;2023-08-06T06:31:51;5.20;;;2.60;;
20729;SDS011;10526;50.850;12.928;2023-08-06T06:36:14;5.82;;;2.88;;
20729;SDS011;10526;50.850;12.928;2023-08-06T06:40:36;5.30;;;2.38;;
20729;SDS011;10526;50.850;12.928;2023-08-06T06:44:58;5.20;;;2.63;;
20729;SDS011;10526;50.850;12.928;2023-08-06T06:49:20;6.03;;;2.67;;
20729;SDS011;10526;50.850;12.928;2023-08-06T06:53:42;4.00;;;2.20;;
20729;SDS011;10526;50.850;12.928;2023-08-06T06:58:04;4.72;;;2.65;;
20729;SDS011;10526;50.850;12.928;2023-08-06T07:02:26;4.90;;;2.20;;
20729;SDS011;10526;50.850;12.928;2023-08-06T07:06:48;6.03;;;2.90;;
20729;SDS011;10526;50.850;12.928;2023-08-06T07:11:10;5.00;;;2.60;;
20729;SDS011;10526;50.850;12.928;2023-08-06T07:15:33;4.50;;;2.47;;
20729;SDS011;10526;50.850;12.928;2023-08-06T07:19:55;5.38;;;2.22;;
20729;SDS011;10526;50.850;12.928;2023-08-06T07:24:17;4.20;;;2.75;;
20729;SDS011;10526;50.850;12.928;2023-08-06T07:28:39;6.22;;;2.78;;
20729;SDS011;10526;50.850;12.928;2023-08-06T07:33:01;3.97;;;2.30;;
20729;SDS011;10526;50.850;12.928;2023-08-06T07:37:23;4.93;;;2.13;;
20729;SDS011;10526;50.850;12.928;2023-08-06T07:41:45;4.43;;;2.40;;
20729;SDS011;10526;50.850;12.928;2023-08-06T07:46:07;8.93;;;2.42;;
20729;SDS011;10526;50.850;12.928;2023-08-06T07:50:30;7.45;;;2.42;;
20729;SDS011;10526;50.850;12.928;2023-08-06T07:54:52;4.50;;;2.47;;
20729;SDS011;10526;50.850;12.928;2023-08-06T07:59:14;3.83;;;2.40;;
20729;SDS011;10526;50.850;12.928;2023-08-06T08:03:36;5.97;;;2.50;;
20729;SDS011;10526;50.850;12.928;2023-08-06T08:07:58;4.47;;;2.47;;
20729;SDS011;10526;50.850;12.928;2023-08-06T08:12:21;4.32;;;2.60;;
20729;SDS011;10526;50.850;12.928;2023-08-06T08:16:43;3.38;;;2.15;;
20729;SDS011;10526;50.850;12.928;2023-08-06T08:21:05;3.63;;;2.40;;
20729;SDS011;10526;50.850;12.928;2023-08-06T08:25:27;3.67;;;2.13;;
20729;SDS011;10526;50.850;12.928;2023-08-06T08:29:52;5.70;;;2.30;;
20729;SDS011;10526;50.850;12.928;2023-08-06T08:34:14;3.33;;;2.17;;
20729;SDS011;10526;50.850;12.928;2023-08-06T08:38:37;3.53;;;2.30;;
20729;SDS011;10526;50.850;12.928;2023-08-06T08:42:59;5.95;;;2.28;;
20729;SDS011;10526;50.850;12.928;2023-08-06T08:47:21;3.15;;;2.10;;
20729;SDS011;10526;50.850;12.928;2023-08-06T08:51:43;4.82;;;2.17;;
20729;SDS011;10526;50.850;12.928;2023-08-06T08:56:07;3.40;;;2.00;;
20729;SDS011;10526;50.850;12.928;2023-08-06T09:00:28;2.45;;;1.90;;
20729;SDS011;10526;50.850;12.928;2023-08-06T09:04:51;3.17;;;2.10;;
20729;SDS011;10526;50.850;12.928;2023-08-06T09:09:13;5.40;;;2.20;;
20729;SDS011;10526;50.850;12.928;2023-08-06T09:13:43;3.58;;;1.75;;
20729;SDS011;10526;50.850;12.928;2023-08-06T09:18:11;3.90;;;1.80;;
20729;SDS011;10526;50.850;12.928;2023-08-06T09:22:34;4.30;;;2.03;;
20729;SDS011;10526;50.850;12.928;2023-08-06T09:26:58;9.52;;;2.63;;
20729;SDS011;10526;50.850;12.928;2023-08-06T09:31:24;3.22;;;1.73;;
20729;SDS011;10526;50.850;12.928;2023-08-06T09:35:54;6.53;;;2.10;;
20729;SDS011;10526;50.850;12.928;2023-08-06T09:40:27;7.22;;;3.50;;
20729;SDS011;10526;50.850;12.928;2023-08-06T09:44:53;2.85;;;1.60;;
20729;SDS011;10526;50.850;12.928;2023-08-06T09:49:28;2.42;;;1.42;;
20729;SDS011;10526;50.850;12.928;2023-08-06T09:53:53;1.60;;;1.35;;
20729;SDS011;10526;50.850;12.928;2023-08-06T09:58:16;2.63;;;1.35;;
20729;SDS011;10526;50.850;12.928;2023-08-06T10:02:38;4.90;;;2.10;;
20729;SDS011;10526;50.850;12.928;2023-08-06T10:07:01;4.43;;;1.92;;
20729;SDS011;10526;50.850;12.928;2023-08-06T10:11:24;2.90;;;1.73;;
20729;SDS011;10526;50.850;12.928;2023-08-06T10:15:49;2.38;;;1.60;;
20729;SDS011;10526;50.850;12.928;2023-08-06T10:20:13;5.28;;;2.00;;
20729;SDS011;10526;50.850;12.928;2023-08-06T10:24:45;2.65;;;1.60;;
20729;SDS011;10526;50.850;12.928;2023-08-06T10:33:58;4.13;;;1.70;;
20729;SDS011;10526;50.850;12.928;2023-08-06T10:38:21;7.82;;;1.80;;
20729;SDS011;10526;50.850;12.928;2023-08-06T10:42:52;3.55;;;1.70;;
20729;SDS011;10526;50.850;12.928;2023-08-06T10:47:37;4.70;;;1.63;;
20729;SDS011;10526;50.850;12.928;2023-08-06T10:52:04;2.58;;;1.20;;
20729;SDS011;10526;50.850;12.928;2023-08-06T10:56:26;7.75;;;1.80;;
20729;SDS011;10526;50.850;12.928;2023-08-06T11:00:48;1.88;;;1.50;;
20729;SDS011;10526;50.850;12.928;2023-08-06T11:05:10;3.17;;;1.70;;
20729;SDS011;10526;50.850;12.928;2023-08-06T11:09:33;4.75;;;2.08;;
20729;SDS011;10526;50.850;12.928;2023-08-06T11:13:55;2.25;;;1.60;;
20729;SDS011;10526;50.850;12.928;2023-08-06T11:18:17;4.10;;;1.73;;
20729;SDS011;10526;50.850;12.928;2023-08-06T11:22:39;5.30;;;1.83;;
20729;SDS011;10526;50.850;12.928;2023-08-06T11:27:01;5.38;;;2.45;;
20729;SDS011;10526;50.850;12.928;2023-08-06T11:31:23;5.47;;;1.98;;
20729;SDS011;10526;50.850;12.928;2023-08-06T11:35:45;3.75;;;1.70;;
20729;SDS011;10526;50.850;12.928;2023-08-06T11:40:09;2.08;;;1.58;;
20729;SDS011;10526;50.850;12.928;2023-08-06T11:44:33;2.95;;;1.60;;
20729;SDS011;10526;50.850;12.928;2023-08-06T11:48:58;4.80;;;1.42;;
20729;SDS011;10526;50.850;12.928;2023-08-06T11:53:20;4.20;;;1.80;;
20729;SDS011;10526;50.850;12.928;2023-08-06T11:57:45;5.03;;;2.22;;
20729;SDS011;10526;50.850;12.928;2023-08-06T12:02:08;3.08;;;1.60;;
20729;SDS011;10526;50.850;12.928;2023-08-06T12:06:41;2.75;;;1.50;;
20729;SDS011;10526;50.850;12.928;2023-08-06T12:11:04;2.42;;;1.60;;
20729;SDS011;10526;50.850;12.928;2023-08-06T12:15:26;3.47;;;1.55;;
20729;SDS011;10526;50.850;12.928;2023-08-06T12:19:49;3.47;;;1.58;;
20729;SDS011;10526;50.850;12.928;2023-08-06T12:24:11;2.88;;;1.58;;
20729;SDS011;10526;50.850;12.928;2023-08-06T12:28:33;3.78;;;1.80;;
20729;SDS011;10526;50.850;12.928;2023-08-06T12:32:55;2.95;;;1.48;;
20729;SDS011;10526;50.850;12.928;2023-08-06T12:37:17;3.95;;;1.70;;
20729;SDS011;10526;50.850;12.928;2023-08-06T12:41:39;6.40;;;2.10;;
20729;SDS011;10526;50.850;12.928;2023-08-06T12:46:01;3.50;;;1.83;;
20729;SDS011;10526;50.850;12.928;2023-08-06T12:50:23;3.40;;;1.63;;
20729;SDS011;10526;50.850;12.928;2023-08-06T12:54:45;3.83;;;1.83;;
20729;SDS011;10526;50.850;12.928;2023-08-06T12:59:07;3.83;;;1.98;;
20729;SDS011;10526;50.850;12.928;2023-08-06T13:03:29;3.25;;;1.60;;
20729;SDS011;10526;50.850;12.928;2023-08-06T13:07:53;6.38;;;2.53;;
20729;SDS011;10526;50.850;12.928;2023-08-06T13:12:15;5.35;;;1.88;;
20729;SDS011;10526;50.850;12.928;2023-08-06T13:16:40;2.95;;;1.50;;
20729;SDS011;10526;50.850;12.928;2023-08-06T13:21:03;5.38;;;2.35;;
20729;SDS011;10526;50.850;12.928;2023-08-06T13:25:25;3.20;;;1.80;;
20729;SDS011;10526;50.850;12.928;2023-08-06T13:29:47;7.15;;;2.47;;
20729;SDS011;10526;50.850;12.928;2023-08-06T13:34:09;8.60;;;2.85;;
20729;SDS011;10526;50.850;12.928;2023-08-06T13:38:31;6.47;;;1.92;;
20729;SDS011;10526;50.850;12.928;2023-08-06T13:42:53;3.90;;;1.90;;
20729;SDS011;10526;50.850;12.928;2023-08-06T13:47:15;9.93;;;2.00;;
20729;SDS011;10526;50.850;12.928;2023-08-06T13:51:36;3.15;;;1.60;;
20729;SDS011;10526;50.850;12.928;2023-08-06T13:55:59;3.30;;;1.48;;
20729;SDS011;10526;50.850;12.928;2023-08-06T14:00:21;2.47;;;1.50;;
20729;SDS011;10526;50.850;12.928;2023-08-06T14:04:43;4.10;;;1.85;;
20729;SDS011;10526;50.850;12.928;2023-08-06T14:09:05;2.92;;;1.30;;
20729;SDS011;10526;50.850;12.928;2023-08-06T14:13:27;7.18;;;2.00;;
20729;SDS011;10526;50.850;12.928;2023-08-06T14:17:49;4.13;;;1.70;;
20729;SDS011;10526;50.850;12.928;2023-08-06T14:22:11;2.72;;;1.63;;
20729;SDS011;10526;50.850;12.928;2023-08-06T14:26:33;3.63;;;1.92;;
20729;SDS011;10526;50.850;12.928;2023-08-06T14:30:55;4.05;;;1.65;;
20729;SDS011;10526;50.850;12.928;2023-08-06T14:35:18;3.30;;;1.88;;
20729;SDS011;10526;50.850;12.928;2023-08-06T14:39:40;5.63;;;2.33;;
20729;SDS011;10526;50.850;12.928;2023-08-06T14:44:02;3.45;;;1.80;;
20729;SDS011;10526;50.850;12.928;2023-08-06T14:48:24;9.60;;;4.13;;
20729;SDS011;10526;50.850;12.928;2023-08-06T14:52:46;7.57;;;2.50;;
20729;SDS011;10526;50.850;12.928;2023-08-06T14:57:09;4.68;;;1.90;;
20729;SDS011;10526;50.850;12.928;2023-08-06T15:01:31;5.03;;;2.05;;
20729;SDS011;10526;50.850;12.928;2023-08-06T15:05:53;4.20;;;1.92;;
20729;SDS011;10526;50.850;12.928;2023-08-06T15:10:16;4.60;;;2.20;;
20729;SDS011;10526;50.850;12.928;2023-08-06T15:14:41;3.17;;;1.83;;
20729;SDS011;10526;50.850;12.928;2023-08-06T15:19:03;4.47;;;1.95;;
20729;SDS011;10526;50.850;12.928;2023-08-06T15:23:25;4.30;;;1.60;;
20729;SDS011;10526;50.850;12.928;2023-08-06T15:27:47;6.05;;;2.30;;
20729;SDS011;10526;50.850;12.928;2023-08-06T15:32:10;4.18;;;2.13;;
20729;SDS011;10526;50.850;12.928;2023-08-06T15:36:35;4.68;;;1.85;;
20729;SDS011;10526;50.850;12.928;2023-08-06T15:40:58;9.52;;;4.28;;
20729;SDS011;10526;50.850;12.928;2023-08-06T15:45:20;4.45;;;1.70;;
20729;SDS011;10526;50.850;12.928;2023-08-06T15:49:42;2.47;;;1.52;;
20729;SDS011;10526;50.850;12.928;2023-08-06T15:54:04;4.07;;;1.92;;
20729;SDS011;10526;50.850;12.928;2023-08-06T15:58:26;3.45;;;1.65;;
20729;SDS011;10526;50.850;12.928;2023-08-06T16:02:49;2.55;;;1.58;;
20729;SDS011;10526;50.850;12.928;2023-08-06T16:07:10;2.85;;;1.67;;
20729;SDS011;10526;50.850;12.928;2023-08-06T16:11:32;4.60;;;1.98;;
20729;SDS011;10526;50.850;12.928;2023-08-06T16:15:55;3.90;;;2.17;;
20729;SDS011;10526;50.850;12.928;2023-08-06T16:20:17;3.40;;;1.58;;
20729;SDS011;10526;50.850;12.928;2023-08-06T16:24:39;4.25;;;1.83;;
20729;SDS011;10526;50.850;12.928;2023-08-06T16:29:01;5.22;;;1.83;;
20729;SDS011;10526;50.850;12.928;2023-08-06T16:33:24;5.47;;;1.92;;
20729;SDS011;10526;50.850;12.928;2023-08-06T16:37:46;5.28;;;1.60;;
20729;SDS011;10526;50.850;12.928;2023-08-06T16:42:08;5.32;;;1.58;;
20729;SDS011;10526;50.850;12.928;2023-08-06T16:46:30;5.65;;;1.90;;
20729;SDS011;10526;50.850;12.928;2023-08-06T16:50:53;5.43;;;1.40;;
20729;SDS011;10526;50.850;12.928;2023-08-06T16:55:16;2.85;;;1.60;;
20729;SDS011;10526;50.850;12.928;2023-08-06T16:59:39;3.58;;;1.50;;
20729;SDS011;10526;50.850;12.928;2023-08-06T17:04:01;3.13;;;1.35;;
20729;SDS011;10526;50.850;12.928;2023-08-06T17:08:23;2.15;;;1.13;;
20729;SDS011;10526;50.850;12.928;2023-08-06T17:12:46;2.97;;;1.10;;
20729;SDS011;10526;50.850;12.928;2023-08-06T17:17:09;8.90;;;3.55;;
20729;SDS011;10526;50.850;12.928;2023-08-06T17:21:32;3.08;;;1.40;;
20729;SDS011;10526;50.850;12.928;2023-08-06T17:25:55;3.00;;;1.33;;
20729;SDS011;10526;50.850;12.928;2023-08-06T17:30:17;3.63;;;1.58;;
20729;SDS011;10526;50.850;12.928;2023-08-06T17:34:40;2.58;;;1.30;;
20729;SDS011;10526;50.850;12.928;2023-08-06T17:39:02;12.05;;;5.55;;
20729;SDS011;10526;50.850;12.928;2023-08-06T17:43:24;4.65;;;1.55;;
20729;SDS011;10526;50.850;12.928;2023-08-06T17:47:46;11.15;;;4.93;;
20729;SDS011;10526;50.850;12.928;2023-08-06T17:52:08;2.28;;;1.00;;
20729;SDS011;10526;50.850;12.928;2023-08-06T17:56:30;5.07;;;2.45;;
20729;SDS011;10526;50.850;12.928;2023-08-06T18:00:52;2.47;;;1.38;;
20729;SDS011;10526;50.850;12.928;2023-08-06T18:05:15;2.78;;;1.17;;
20729;SDS011;10526;50.850;12.928;2023-08-06T18:09:38;9.15;;;1.10;;
20729;SDS011;10526;50.850;12.928;2023-08-06T18:14:00;1.90;;;0.98;;
20729;SDS011;10526;50.850;12.928;2023-08-06T18:18:22;6.75;;;3.28;;
20729;SDS011;10526;50.850;12.928;2023-08-06T18:22:44;2.70;;;0.90;;
20729;SDS011;10526;50.850;12.928;2023-08-06T18:27:06;2.40;;;0.90;;
20729;SDS011;10526;50.850;12.928;2023-08-06T18:31:28;2.10;;;1.10;;
20729;SDS011;10526;50.850;12.928;2023-08-06T18:35:50;1.73;;;0.95;;
20729;SDS011;10526;50.850;12.928;2023-08-06T18:40:12;3.38;;;0.60;;
20729;SDS011;10526;50.850;12.928;2023-08-06T18:44:37;1.75;;;0.68;;
20729;SDS011;10526;50.850;12.928;2023-08-06T18:48:59;3.53;;;0.88;;
20729;SDS011;10526;50.850;12.928;2023-08-06T18:53:21;5.53;;;1.10;;
20729;SDS011;10526;50.850;12.928;2023-08-06T18:57:44;5.25;;;1.60;;
20729;SDS011;10526;50.850;12.928;2023-08-06T19:02:06;5.40;;;1.60;;
20729;SDS011;10526;50.850;12.928;2023-08-06T19:06:29;6.90;;;2.00;;
20729;SDS011;10526;50.850;12.928;2023-08-06T19:10:52;4.72;;;2.20;;
20729;SDS011;10526;50.850;12.928;2023-08-06T19:15:14;3.80;;;1.80;;
20729;SDS011;10526;50.850;12.928;2023-08-06T19:19:37;4.00;;;2.30;;
20729;SDS011;10526;50.850;12.928;2023-08-06T19:24:04;6.82;;;2.90;;
20729;SDS011;10526;50.850;12.928;2023-08-06T19:28:26;4.45;;;2.42;;
20729;SDS011;10526;50.850;12.928;2023-08-06T19:32:48;5.22;;;2.50;;
20729;SDS011;10526;50.850;12.928;2023-08-06T19:37:10;7.63;;;2.47;;
20729;SDS011;10526;50.850;12.928;2023-08-06T19:41:34;9.75;;;2.72;;
20729;SDS011;10526;50.850;12.928;2023-08-06T19:45:56;4.53;;;2.38;;
20729;SDS011;10526;50.850;12.928;2023-08-06T19:50:19;6.50;;;2.08;;
20729;SDS011;10526;50.850;12.928;2023-08-06T19:54:42;4.25;;;2.10;;
20729;SDS011;10526;50.850;12.928;2023-08-06T19:59:04;3.97;;;1.95;;
20729;SDS011;10526;50.850;12.928;2023-08-06T20:03:26;5.82;;;1.88;;
20729;SDS011;10526;50.850;12.928;2023-08-06T20:07:50;3.75;;;1.55;;
20729;SDS011;10526;50.850;12.928;2023-08-06T20:12:11;3.78;;;1.42;;
20729;SDS011;10526;50.850;12.928;2023-08-06T20:16:33;2.42;;;1.40;;
20729;SDS011;10526;50.850;12.928;2023-08-06T20:20:56;3.88;;;1.70;;
20729;SDS011;10526;50.850;12.928;2023-08-06T20:25:18;3.83;;;1.70;;
20729;SDS011;10526;50.850;12.928;2023-08-06T20:29:40;2.88;;;1.77;;
20729;SDS011;10526;50.850;12.928;2023-08-06T20:34:02;5.18;;;2.33;;
20729;SDS011;10526;50.850;12.928;2023-08-06T20:38:24;2.92;;;2.00;;
20729;SDS011;10526;50.850;12.928;2023-08-06T20:42:46;4.43;;;2.10;;
20729;SDS011;10526;50.850;12.928;2023-08-06T20:47:08;7.07;;;2.22;;
20729;SDS011;10526;50.850;12.928;2023-08-06T20:51:30;2.65;;;1.70;;
20729;SDS011;10526;50.850;12.928;2023-08-06T20:56:02;3.38;;;1.90;;
20729;SDS011;10526;50.850;12.928;2023-08-06T21:00:25;2.92;;;1.77;;
20729;SDS011;10526;50.850;12.928;2023-08-06T21:04:47;2.83;;;1.52;;
20729;SDS011;10526;50.850;12.928;2023-08-06T21:09:10;4.30;;;1.63;;
20729;SDS011;10526;50.850;12.928;2023-08-06T21:13:32;3.35;;;1.77;;
20729;SDS011;10526;50.850;12.928;2023-08-06T21:17:54;2.20;;;1.60;;
20729;SDS011;10526;50.850;12.928;2023-08-06T21:22:16;3.90;;;1.55;;
20729;SDS011;10526;50.850;12.928;2023-08-06T21:26:38;2.35;;;1.40;;
20729;SDS011;10526;50.850;12.928;2023-08-06T21:31:18;3.63;;;1.80;;
20729;SDS011;10526;50.850;12.928;2023-08-06T21:35:40;2.08;;;1.38;;
20729;SDS011;10526;50.850;12.928;2023-08-06T21:40:02;3.70;;;1.77;;
20729;SDS011;10526;50.850;12.928;2023-08-06T21:44:24;2.50;;;1.55;;
20729;SDS011;10526;50.850;12.928;2023-08-06T21:48:47;2.25;;;1.60;;
20729;SDS011;10526;50.850;12.928;2023-08-06T21:53:10;4.55;;;2.40;;
20729;SDS011;10526;50.850;12.928;2023-08-06T21:57:32;3.97;;;2.38;;
20729;SDS011;10526;50.850;12.928;2023-08-06T22:01:54;3.53;;;2.00;;
20729;SDS011;10526;50.850;12.928;2023-08-06T22:06:16;4.45;;;2.10;;
20729;SDS011;10526;50.850;12.928;2023-08-06T22:10:38;2.95;;;1.95;;
20729;SDS011;10526;50.850;12.928;2023-08-06T22:15:00;4.97;;;2.47;;
20729;SDS011;10526;50.850;12.928;2023-08-06T22:19:23;6.13;;;2.47;;
20729;SDS011;10526;50.850;12.928;2023-08-06T22:23:45;3.50;;;2.25;;
20729;SDS011;10526;50.850;12.928;2023-08-06T22:28:07;7.55;;;2.72;;
20729;SDS011;10526;50.850;12.928;2023-08-06T22:32:30;3.90;;;2.42;;
20729;SDS011;10526;50.850;12.928;2023-08-06T22:36:52;4.93;;;2.72;;
20729;SDS011;10526;50.850;12.928;2023-08-06T22:41:14;6.97;;;3.10;;
20729;SDS011;10526;50.850;12.928;2023-08-06T22:45:36;6.53;;;3.22;;
20729;SDS011;10526;50.850;12.928;2023-08-06T22:49:58;7.38;;;3.70;;
20729;SDS011;10526;50.850;12.928;2023-08-06T22:54:20;6.38;;;3.30;;
20729;SDS011;10526;50.850;12.928;2023-08-06T22:58:44;6.20;;;3.55;;
20729;SDS011;10526;50.850;12.928;2023-08-06T23:03:07;7.47;;;3.30;;
20729;SDS011;10526;50.850;12.928;2023-08-06T23:07:33;6.55;;;3.50;;
20729;SDS011;10526;50.850;12.928;2023-08-06T23:11:55;6.57;;;3.35;;
20729;SDS011;10526;50.850;12.928;2023-08-06T23:16:20;9.70;;;3.75;;
20729;SDS011;10526;50.850;12.928;2023-08-06T23:20:43;8.20;;;3.50;;
20729;SDS011;10526;50.850;12.928;2023-08-06T23:25:05;8.25;;;3.90;;
20729;SDS011;10526;50.850;12.928;2023-08-06T23:29:27;8.95;;;4.05;;
20729;SDS011;10526;50.850;12.928;2023-08-06T23:33:50;10.93;;;5.55;;
20729;SDS011;10526;50.850;12.928;2023-08-06T23:38:12;6.82;;;3.55;;
20729;SDS011;10526;50.850;12.928;2023-08-06T23:42:34;6.85;;;3.33;;
20729;SDS011;10526;50.850;12.928;2023-08-06T23:46:56;7.30;;;3.55;;
20729;SDS011;10526;50.850;12.928;2023-08-06T23:51:18;8.15;;;3.55;;
20729;SDS011;10526;50.850;12.928;2023-08-06T23:55:40;8.10;;;3.30;;
